sensor_id;sensor_type;location;lat;lon;timestamp;pressure;altitude;pressure_sealevel;temperature;humidity
36932;BME280;22847;42.654;23.370;2024-03-02T00:01:11;94061.53;;;9.12;84.43
36932;BME280;22847;42.654;23.370;2024-03-02T00:03:37;94005.22;;;8.60;84.84
36932;BME280;22847;42.654;23.370;2024-03-02T00:06:04;94108.50;;;9.11;85.57
36932;BME280;22847;42.654;23.370;2024-03-02T00:08:30;94091.13;;;8.93;86.85
36932;BME280;22847;42.654;23.370;2024-03-02T00:11:00;94070.25;;;9.03;86.54
36932;BME280;22847;42.654;23.370;2024-03-02T00:13:25;93989.91;;;8.39;86.46
36932;BME280;22847;42.654;23.370;2024-03-02T00:15:55;94098.91;;;9.29;85.59
36932;BME280;22847;42.654;23.370;2024-03-02T00:18:30;93992.94;;;8.70;84.57
36932;BME280;22847;42.654;23.370;2024-03-02T00:20:57;94140.09;;;9.59;85.67
36932;BME280;22847;42.654;23.370;2024-03-02T00:23:23;93964.91;;;8.73;84.28
36932;BME280;22847;42.654;23.370;2024-03-02T00:25:51;94105.25;;;9.52;84.44
36932;BME280;22847;42.654;23.370;2024-03-02T00:28:26;94146.84;;;9.44;85.16
36932;BME280;22847;42.654;23.370;2024-03-02T00:30:57;94151.53;;;9.40;85.64
36932;BME280;22847;42.654;23.370;2024-03-02T00:33:25;94011.47;;;8.92;85.46
36932;BME280;22847;42.654;23.370;2024-03-02T00:35:52;94116.38;;;9.36;84.94
36932;BME280;22847;42.654;23.370;2024-03-02T00:38:17;94091.72;;;9.49;84.25
36932;BME280;22847;42.654;23.370;2024-03-02T00:40:44;94044.97;;;9.13;83.89
36932;BME280;22847;42.654;23.370;2024-03-02T00:46:18;94106.97;;;9.44;84.01
36932;BME280;22847;42.654;23.370;2024-03-02T00:49:03;94115.25;;;9.39;84.49
36932;BME280;22847;42.654;23.370;2024-03-02T00:51:34;93994.81;;;8.60;85.24
36932;BME280;22847;42.654;23.370;2024-03-02T00:54:02;94110.63;;;9.33;84.41
36932;BME280;22847;42.654;23.370;2024-03-02T00:56:30;94105.53;;;9.67;84.05
36932;BME280;22847;42.654;23.370;2024-03-02T00:58:55;94120.63;;;9.89;83.31
36932;BME280;22847;42.654;23.370;2024-03-02T01:01:21;93937.09;;;8.74;82.54
36932;BME280;22847;42.654;23.370;2024-03-02T01:03:46;94103.44;;;10.04;83.18
36932;BME280;22847;42.654;23.370;2024-03-02T01:06:12;94097.44;;;9.78;82.05
36932;BME280;22847;42.654;23.370;2024-03-02T01:08:38;94106.16;;;9.69;82.23
36932;BME280;22847;42.654;23.370;2024-03-02T01:11:04;94137.06;;;9.90;82.27
36932;BME280;22847;42.654;23.370;2024-03-02T01:13:30;94095.00;;;10.02;81.44
36932;BME280;22847;42.654;23.370;2024-03-02T01:15:57;94106.72;;;10.06;81.70
36932;BME280;22847;42.654;23.370;2024-03-02T01:18:22;94102.84;;;10.10;80.55
36932;BME280;22847;42.654;23.370;2024-03-02T01:20:49;94116.53;;;10.12;80.85
36932;BME280;22847;42.654;23.370;2024-03-02T01:23:18;93936.75;;;9.20;80.29
36932;BME280;22847;42.654;23.370;2024-03-02T01:25:45;94095.13;;;10.26;81.03
36932;BME280;22847;42.654;23.370;2024-03-02T01:28:10;94052.72;;;9.82;81.26
36932;BME280;22847;42.654;23.370;2024-03-02T01:30:36;94099.88;;;10.05;81.19
36932;BME280;22847;42.654;23.370;2024-03-02T01:33:01;94086.22;;;10.03;80.96
36932;BME280;22847;42.654;23.370;2024-03-02T01:35:27;94089.03;;;9.84;82.23
36932;BME280;22847;42.654;23.370;2024-03-02T01:37:53;93966.16;;;9.13;82.37
36932;BME280;22847;42.654;23.370;2024-03-02T01:40:19;94047.53;;;9.91;81.62
36932;BME280;22847;42.654;23.370;2024-03-02T01:42:45;93944.53;;;9.12;81.23
36932;BME280;22847;42.654;23.370;2024-03-02T01:45:11;94084.44;;;10.04;82.47
36932;BME280;22847;42.654;23.370;2024-03-02T01:47:36;94080.13;;;10.20;81.45
36932;BME280;22847;42.654;23.370;2024-03-02T01:50:02;94085.28;;;10.12;81.37
36932;BME280;22847;42.654;23.370;2024-03-02T01:52:28;94074.28;;;10.26;80.68
36932;BME280;22847;42.654;23.370;2024-03-02T01:54:53;93941.16;;;9.54;80.62
36932;BME280;22847;42.654;23.370;2024-03-02T01:57:19;94018.75;;;9.92;80.29
36932;BME280;22847;42.654;23.370;2024-03-02T01:59:46;94057.78;;;10.18;80.67
36932;BME280;22847;42.654;23.370;2024-03-02T02:02:14;94060.25;;;10.19;80.34
36932;BME280;22847;42.654;23.370;2024-03-02T02:04:39;93933.22;;;9.29;80.07
36932;BME280;22847;42.654;23.370;2024-03-02T02:07:05;94039.28;;;9.95;80.94
36932;BME280;22847;42.654;23.370;2024-03-02T02:09:32;94076.84;;;10.18;81.31
36932;BME280;22847;42.654;23.370;2024-03-02T02:11:57;94071.84;;;10.25;81.33
36932;BME280;22847;42.654;23.370;2024-03-02T02:14:23;94078.75;;;10.08;83.25
36932;BME280;22847;42.654;23.370;2024-03-02T02:16:48;94074.00;;;10.04;83.18
36932;BME280;22847;42.654;23.370;2024-03-02T02:19:14;94076.63;;;10.12;82.39
36932;BME280;22847;42.654;23.370;2024-03-02T02:21:42;94025.00;;;9.99;81.73
36932;BME280;22847;42.654;23.370;2024-03-02T02:24:08;93901.84;;;9.23;81.81
36932;BME280;22847;42.654;23.370;2024-03-02T02:26:33;94072.66;;;10.25;81.98
36932;BME280;22847;42.654;23.370;2024-03-02T02:28:59;93925.06;;;9.24;82.05
36932;BME280;22847;42.654;23.370;2024-03-02T02:31:24;94061.94;;;10.03;82.78
36932;BME280;22847;42.654;23.370;2024-03-02T02:33:50;93906.13;;;9.06;83.43
36932;BME280;22847;42.654;23.370;2024-03-02T02:36:15;94047.81;;;10.13;82.62
36932;BME280;22847;42.654;23.370;2024-03-02T02:38:44;93911.09;;;9.25;82.53
36932;BME280;22847;42.654;23.370;2024-03-02T02:41:12;93889.88;;;9.04;83.35
36932;BME280;22847;42.654;23.370;2024-03-02T02:43:38;94049.19;;;9.58;84.90
36932;BME280;22847;42.654;23.370;2024-03-02T02:46:05;94063.69;;;9.94;84.63
36932;BME280;22847;42.654;23.370;2024-03-02T02:48:30;94072.13;;;9.88;84.19
36932;BME280;22847;42.654;23.370;2024-03-02T02:50:56;94076.72;;;9.94;84.18
36932;BME280;22847;42.654;23.370;2024-03-02T02:53:21;93985.47;;;9.70;83.15
36932;BME280;22847;42.654;23.370;2024-03-02T02:55:47;93903.66;;;9.30;82.17
36932;BME280;22847;42.654;23.370;2024-03-02T02:58:12;93888.63;;;9.16;82.00
36932;BME280;22847;42.654;23.370;2024-03-02T03:00:38;93922.47;;;9.24;82.06
36932;BME280;22847;42.654;23.370;2024-03-02T03:03:04;94083.72;;;10.27;82.18
36932;BME280;22847;42.654;23.370;2024-03-02T03:05:30;94071.44;;;10.12;82.82
36932;BME280;22847;42.654;23.370;2024-03-02T03:07:56;93974.63;;;9.49;82.95
36932;BME280;22847;42.654;23.370;2024-03-02T03:10:22;94031.81;;;10.00;83.00
36932;BME280;22847;42.654;23.370;2024-03-02T03:12:48;94039.47;;;10.02;82.60
36932;BME280;22847;42.654;23.370;2024-03-02T03:15:14;94087.94;;;10.20;82.91
36932;BME280;22847;42.654;23.370;2024-03-02T03:17:41;94080.22;;;10.11;83.18
36932;BME280;22847;42.654;23.370;2024-03-02T03:20:07;94060.59;;;10.24;82.61
36932;BME280;22847;42.654;23.370;2024-03-02T03:22:35;93869.00;;;8.96;82.36
36932;BME280;22847;42.654;23.370;2024-03-02T03:25:01;93968.31;;;9.59;82.28
36932;BME280;22847;42.654;23.370;2024-03-02T03:27:27;94033.78;;;10.06;82.57
36932;BME280;22847;42.654;23.370;2024-03-02T03:29:52;93930.06;;;9.44;82.44
36932;BME280;22847;42.654;23.370;2024-03-02T03:32:17;94068.75;;;10.29;82.45
36932;BME280;22847;42.654;23.370;2024-03-02T03:34:43;94029.72;;;10.04;82.45
36932;BME280;22847;42.654;23.370;2024-03-02T03:37:09;93894.50;;;9.18;82.15
36932;BME280;22847;42.654;23.370;2024-03-02T03:39:35;93971.47;;;9.63;82.59
36932;BME280;22847;42.654;23.370;2024-03-02T03:42:04;94049.41;;;10.06;82.77
36932;BME280;22847;42.654;23.370;2024-03-02T03:44:29;94069.38;;;10.23;83.14
36932;BME280;22847;42.654;23.370;2024-03-02T03:46:55;94080.00;;;10.04;83.08
36932;BME280;22847;42.654;23.370;2024-03-02T03:49:20;94071.03;;;10.24;82.70
36932;BME280;22847;42.654;23.370;2024-03-02T03:51:46;94061.06;;;10.20;82.94
36932;BME280;22847;42.654;23.370;2024-03-02T03:54:11;94032.25;;;9.88;82.63
36932;BME280;22847;42.654;23.370;2024-03-02T03:56:37;94056.78;;;10.11;82.62
36932;BME280;22847;42.654;23.370;2024-03-02T03:59:03;94026.22;;;9.87;82.21
36932;BME280;22847;42.654;23.370;2024-03-02T04:01:30;93999.97;;;9.72;82.15
36932;BME280;22847;42.654;23.370;2024-03-02T04:03:55;94060.94;;;10.21;81.86
36932;BME280;22847;42.654;23.370;2024-03-02T04:06:21;93940.47;;;9.44;81.84
36932;BME280;22847;42.654;23.370;2024-03-02T04:08:46;94036.06;;;10.09;81.94
36932;BME280;22847;42.654;23.370;2024-03-02T04:11:12;94057.31;;;10.22;81.98
36932;BME280;22847;42.654;23.370;2024-03-02T04:13:37;93929.53;;;9.32;82.01
36932;BME280;22847;42.654;23.370;2024-03-02T04:16:03;94060.94;;;10.21;82.09
36932;BME280;22847;42.654;23.370;2024-03-02T04:18:30;93887.66;;;9.17;81.04
36932;BME280;22847;42.654;23.370;2024-03-02T04:20:57;94075.28;;;10.34;81.38
36932;BME280;22847;42.654;23.370;2024-03-02T04:23:24;94049.44;;;10.14;81.36
36932;BME280;22847;42.654;23.370;2024-03-02T04:25:50;94064.88;;;10.34;81.16
36932;BME280;22847;42.654;23.370;2024-03-02T04:28:15;94098.28;;;10.38;80.67
36932;BME280;22847;42.654;23.370;2024-03-02T04:30:41;94061.28;;;10.01;81.29
36932;BME280;22847;42.654;23.370;2024-03-02T04:33:07;93921.50;;;9.25;81.19
36932;BME280;22847;42.654;23.370;2024-03-02T04:35:38;94070.16;;;10.16;81.37
36932;BME280;22847;42.654;23.370;2024-03-02T04:38:03;94032.44;;;9.86;81.62
36932;BME280;22847;42.654;23.370;2024-03-02T04:40:29;94074.50;;;10.07;82.07
36932;BME280;22847;42.654;23.370;2024-03-02T04:42:54;94066.44;;;9.93;82.08
36932;BME280;22847;42.654;23.370;2024-03-02T04:45:20;94078.69;;;10.00;82.40
36932;BME280;22847;42.654;23.370;2024-03-02T04:47:45;93839.84;;;8.50;82.60
36932;BME280;22847;42.654;23.370;2024-03-02T04:50:11;93934.91;;;9.05;83.04
36932;BME280;22847;42.654;23.370;2024-03-02T04:52:36;94076.16;;;10.08;83.43
36932;BME280;22847;42.654;23.370;2024-03-02T04:55:02;94081.34;;;10.08;84.16
36932;BME280;22847;42.654;23.370;2024-03-02T04:57:46;94084.91;;;10.07;84.27
36932;BME280;22847;42.654;23.370;2024-03-02T05:00:13;94081.34;;;10.08;83.93
36932;BME280;22847;42.654;23.370;2024-03-02T05:02:38;94089.91;;;10.01;84.32
36932;BME280;22847;42.654;23.370;2024-03-02T05:05:04;94061.34;;;9.83;84.83
36932;BME280;22847;42.654;23.370;2024-03-02T05:07:29;94067.41;;;9.92;85.00
36932;BME280;22847;42.654;23.370;2024-03-02T05:09:55;94049.25;;;9.74;85.23
36932;BME280;22847;42.654;23.370;2024-03-02T05:12:20;94096.34;;;10.14;84.47
36932;BME280;22847;42.654;23.370;2024-03-02T05:15:05;93973.59;;;9.41;84.97
36932;BME280;22847;42.654;23.370;2024-03-02T05:17:31;93987.19;;;9.53;85.20
36932;BME280;22847;42.654;23.370;2024-03-02T05:19:56;94091.66;;;10.18;85.10
36932;BME280;22847;42.654;23.370;2024-03-02T05:22:21;94102.63;;;10.29;84.96
36932;BME280;22847;42.654;23.370;2024-03-02T05:24:47;93981.81;;;9.55;84.28
36932;BME280;22847;42.654;23.370;2024-03-02T05:27:12;94099.41;;;10.36;84.29
36932;BME280;22847;42.654;23.370;2024-03-02T05:29:38;94071.00;;;10.16;83.64
36932;BME280;22847;42.654;23.370;2024-03-02T05:32:03;94132.75;;;10.32;84.24
36932;BME280;22847;42.654;23.370;2024-03-02T05:34:29;94104.28;;;10.31;83.63
36932;BME280;22847;42.654;23.370;2024-03-02T05:36:56;94107.38;;;10.34;83.38
36932;BME280;22847;42.654;23.370;2024-03-02T05:39:23;94126.63;;;10.41;83.23
36932;BME280;22847;42.654;23.370;2024-03-02T05:41:48;94101.66;;;10.31;83.43
36932;BME280;22847;42.654;23.370;2024-03-02T05:44:14;94119.28;;;10.45;83.85
36932;BME280;22847;42.654;23.370;2024-03-02T05:46:40;94125.03;;;10.48;84.43
36932;BME280;22847;42.654;23.370;2024-03-02T05:49:24;94127.47;;;10.50;84.91
36932;BME280;22847;42.654;23.370;2024-03-02T05:51:50;94135.94;;;10.44;85.01
36932;BME280;22847;42.654;23.370;2024-03-02T05:54:15;94046.00;;;10.06;85.76
36932;BME280;22847;42.654;23.370;2024-03-02T05:56:41;94105.13;;;10.39;85.97
36932;BME280;22847;42.654;23.370;2024-03-02T05:59:06;94133.50;;;10.58;86.05
36932;BME280;22847;42.654;23.370;2024-03-02T06:01:45;94125.84;;;10.49;86.56
36932;BME280;22847;42.654;23.370;2024-03-02T06:04:16;94021.69;;;9.89;86.75
36932;BME280;22847;42.654;23.370;2024-03-02T06:06:41;94150.78;;;10.59;86.64
36932;BME280;22847;42.654;23.370;2024-03-02T06:09:07;94059.38;;;10.11;85.49
36932;BME280;22847;42.654;23.370;2024-03-02T06:11:36;94123.19;;;10.41;85.61
36932;BME280;22847;42.654;23.370;2024-03-02T06:14:02;94155.88;;;10.61;85.31
36932;BME280;22847;42.654;23.370;2024-03-02T06:16:28;94018.69;;;9.76;85.44
36932;BME280;22847;42.654;23.370;2024-03-02T06:18:55;94129.66;;;10.28;85.99
36932;BME280;22847;42.654;23.370;2024-03-02T06:21:23;94138.31;;;10.37;86.54
36932;BME280;22847;42.654;23.370;2024-03-02T06:23:48;93990.72;;;9.44;86.64
36932;BME280;22847;42.654;23.370;2024-03-02T06:26:14;94139.47;;;10.35;86.99
36932;BME280;22847;42.654;23.370;2024-03-02T06:28:40;94001.63;;;9.48;86.96
36932;BME280;22847;42.654;23.370;2024-03-02T06:31:06;94134.00;;;9.94;88.69
36932;BME280;22847;42.654;23.370;2024-03-02T06:33:31;94144.78;;;9.99;88.01
36932;BME280;22847;42.654;23.370;2024-03-02T06:35:56;94135.59;;;10.13;88.80
36932;BME280;22847;42.654;23.370;2024-03-02T06:38:22;94153.66;;;10.14;88.74
36932;BME280;22847;42.654;23.370;2024-03-02T06:40:47;94145.84;;;10.14;88.34
36932;BME280;22847;42.654;23.370;2024-03-02T06:43:13;94124.25;;;9.96;88.18
36932;BME280;22847;42.654;23.370;2024-03-02T06:45:38;94152.56;;;10.17;88.33
36932;BME280;22847;42.654;23.370;2024-03-02T06:48:04;94126.75;;;10.06;88.70
36932;BME280;22847;42.654;23.370;2024-03-02T06:50:30;94025.00;;;9.39;88.23
36932;BME280;22847;42.654;23.370;2024-03-02T06:52:55;94088.34;;;9.82;88.02
36932;BME280;22847;42.654;23.370;2024-03-02T06:55:21;94145.84;;;10.14;88.01
36932;BME280;22847;42.654;23.370;2024-03-02T06:57:47;94129.94;;;10.00;88.23
36932;BME280;22847;42.654;23.370;2024-03-02T07:00:13;94151.28;;;10.21;89.53
36932;BME280;22847;42.654;23.370;2024-03-02T07:02:39;94159.28;;;10.27;90.33
36932;BME280;22847;42.654;23.370;2024-03-02T07:05:07;94113.25;;;10.10;88.54
36932;BME280;22847;42.654;23.370;2024-03-02T07:07:33;93977.31;;;9.31;87.19
36932;BME280;22847;42.654;23.370;2024-03-02T07:10:00;94147.25;;;10.26;87.05
36932;BME280;22847;42.654;23.370;2024-03-02T07:12:25;94155.75;;;10.37;87.06
36932;BME280;22847;42.654;23.370;2024-03-02T07:14:51;94144.59;;;10.18;87.15
36932;BME280;22847;42.654;23.370;2024-03-02T07:17:29;94190.66;;;10.18;88.04
36932;BME280;22847;42.654;23.370;2024-03-02T07:19:56;94053.16;;;9.44;87.88
36932;BME280;22847;42.654;23.370;2024-03-02T07:22:21;94188.16;;;10.08;88.75
36932;BME280;22847;42.654;23.370;2024-03-02T07:24:48;94167.38;;;10.16;88.87
36932;BME280;22847;42.654;23.370;2024-03-02T07:27:15;94148.53;;;10.05;88.88
36932;BME280;22847;42.654;23.370;2024-03-02T07:29:41;94159.75;;;9.97;89.41
36932;BME280;22847;42.654;23.370;2024-03-02T07:32:08;94169.78;;;9.92;88.95
36932;BME280;22847;42.654;23.370;2024-03-02T07:34:34;94196.56;;;10.02;89.76
36932;BME280;22847;42.654;23.370;2024-03-02T07:37:00;94141.50;;;9.97;89.11
36932;BME280;22847;42.654;23.370;2024-03-02T07:39:26;94176.09;;;10.07;89.11
36932;BME280;22847;42.654;23.370;2024-03-02T07:41:52;94172.41;;;10.18;89.11
36932;BME280;22847;42.654;23.370;2024-03-02T07:44:18;94086.22;;;9.52;90.03
36932;BME280;22847;42.654;23.370;2024-03-02T07:46:48;93972.88;;;8.80;90.45
36932;BME280;22847;42.654;23.370;2024-03-02T07:49:17;94060.28;;;9.16;91.83
36932;BME280;22847;42.654;23.370;2024-03-02T07:51:42;94080.28;;;9.41;91.75
36932;BME280;22847;42.654;23.370;2024-03-02T07:54:08;94192.06;;;10.12;91.61
36932;BME280;22847;42.654;23.370;2024-03-02T07:56:34;94184.47;;;10.19;91.40
36932;BME280;22847;42.654;23.370;2024-03-02T07:59:01;94193.44;;;10.16;90.85
36932;BME280;22847;42.654;23.370;2024-03-02T08:01:30;94166.63;;;9.80;91.29
36932;BME280;22847;42.654;23.370;2024-03-02T08:04:01;94010.97;;;8.89;91.60
36932;BME280;22847;42.654;23.370;2024-03-02T08:06:29;94173.75;;;10.04;91.24
36932;BME280;22847;42.654;23.370;2024-03-02T08:08:57;94188.56;;;10.21;90.77
36932;BME280;22847;42.654;23.370;2024-03-02T08:11:24;94162.75;;;10.10;89.72
36932;BME280;22847;42.654;23.370;2024-03-02T08:13:50;94182.13;;;10.08;89.98
36932;BME280;22847;42.654;23.370;2024-03-02T08:16:17;94150.91;;;9.90;89.45
36932;BME280;22847;42.654;23.370;2024-03-02T08:18:47;94190.13;;;10.14;90.19
36932;BME280;22847;42.654;23.370;2024-03-02T08:21:13;94180.50;;;10.15;89.43
36932;BME280;22847;42.654;23.370;2024-03-02T08:23:40;94036.69;;;9.35;89.32
36932;BME280;22847;42.654;23.370;2024-03-02T08:26:07;94195.63;;;10.29;89.93
36932;BME280;22847;42.654;23.370;2024-03-02T08:28:32;94202.00;;;10.35;89.49
36932;BME280;22847;42.654;23.370;2024-03-02T08:30:58;94187.00;;;10.37;89.08
36932;BME280;22847;42.654;23.370;2024-03-02T08:33:24;94180.19;;;10.36;89.66
36932;BME280;22847;42.654;23.370;2024-03-02T08:35:49;94028.56;;;9.38;90.11
36932;BME280;22847;42.654;23.370;2024-03-02T08:38:15;94103.91;;;10.00;89.42
36932;BME280;22847;42.654;23.370;2024-03-02T08:40:40;94194.13;;;10.52;89.40
36932;BME280;22847;42.654;23.370;2024-03-02T08:43:06;94153.97;;;10.37;89.90
36932;BME280;22847;42.654;23.370;2024-03-02T08:45:32;94209.81;;;10.68;89.63
36932;BME280;22847;42.654;23.370;2024-03-02T08:47:59;93944.16;;;9.07;89.66
36932;BME280;22847;42.654;23.370;2024-03-02T08:50:24;94074.75;;;9.96;89.39
36932;BME280;22847;42.654;23.370;2024-03-02T08:52:50;94099.66;;;10.16;88.83
36932;BME280;22847;42.654;23.370;2024-03-02T08:55:15;94024.25;;;9.81;87.52
36932;BME280;22847;42.654;23.370;2024-03-02T08:57:41;94161.69;;;10.55;87.41
36932;BME280;22847;42.654;23.370;2024-03-02T09:00:07;94184.47;;;10.95;86.56
36932;BME280;22847;42.654;23.370;2024-03-02T09:02:34;94163.75;;;10.85;85.60
36932;BME280;22847;42.654;23.370;2024-03-02T09:04:59;94145.47;;;10.77;85.76
36932;BME280;22847;42.654;23.370;2024-03-02T09:07:25;94191.72;;;11.17;85.97
36932;BME280;22847;42.654;23.370;2024-03-02T09:09:50;94195.19;;;11.26;87.07
36932;BME280;22847;42.654;23.370;2024-03-02T09:12:17;94191.78;;;11.33;84.91
36932;BME280;22847;42.654;23.370;2024-03-02T09:14:43;94195.34;;;11.40;83.57
36932;BME280;22847;42.654;23.370;2024-03-02T09:17:09;94205.97;;;11.47;82.50
36932;BME280;22847;42.654;23.370;2024-03-02T09:19:36;94050.28;;;10.57;82.90
36932;BME280;22847;42.654;23.370;2024-03-02T09:22:02;94173.31;;;11.35;83.20
36932;BME280;22847;42.654;23.370;2024-03-02T09:24:28;94200.75;;;11.55;83.01
36932;BME280;22847;42.654;23.370;2024-03-02T09:26:54;94113.91;;;10.96;81.88
36932;BME280;22847;42.654;23.370;2024-03-02T09:29:19;94052.88;;;10.57;80.85
36932;BME280;22847;42.654;23.370;2024-03-02T09:31:46;94191.56;;;11.10;80.46
36932;BME280;22847;42.654;23.370;2024-03-02T09:34:12;94215.03;;;11.10;80.73
36932;BME280;22847;42.654;23.370;2024-03-02T09:36:37;94126.16;;;10.54;80.73
36932;BME280;22847;42.654;23.370;2024-03-02T09:39:03;94180.28;;;11.02;81.07
36932;BME280;22847;42.654;23.370;2024-03-02T09:41:29;94211.31;;;11.21;81.21
36932;BME280;22847;42.654;23.370;2024-03-02T09:43:55;94216.16;;;11.08;81.89
36932;BME280;22847;42.654;23.370;2024-03-02T09:46:20;94193.78;;;10.89;81.21
36932;BME280;22847;42.654;23.370;2024-03-02T09:48:46;94205.06;;;10.98;81.63
36932;BME280;22847;42.654;23.370;2024-03-02T09:51:11;94192.63;;;10.92;83.36
36932;BME280;22847;42.654;23.370;2024-03-02T09:53:38;94203.22;;;10.90;83.64
36932;BME280;22847;42.654;23.370;2024-03-02T09:56:04;94151.63;;;10.60;82.88
36932;BME280;22847;42.654;23.370;2024-03-02T09:58:30;94208.50;;;10.98;82.33
36932;BME280;22847;42.654;23.370;2024-03-02T10:00:56;94172.56;;;10.76;83.79
36932;BME280;22847;42.654;23.370;2024-03-02T10:03:23;94211.47;;;11.11;84.27
36932;BME280;22847;42.654;23.370;2024-03-02T10:05:52;94076.94;;;10.35;83.53
36932;BME280;22847;42.654;23.370;2024-03-02T10:08:17;94208.19;;;11.09;84.01
36932;BME280;22847;42.654;23.370;2024-03-02T10:10:43;94173.31;;;11.18;84.24
36932;BME280;22847;42.654;23.370;2024-03-02T10:13:13;94208.25;;;11.50;84.24
36932;BME280;22847;42.654;23.370;2024-03-02T10:15:40;94181.00;;;11.36;83.70
36932;BME280;22847;42.654;23.370;2024-03-02T10:18:10;94212.84;;;11.48;83.39
36932;BME280;22847;42.654;23.370;2024-03-02T10:20:40;94143.78;;;11.10;83.17
36932;BME280;22847;42.654;23.370;2024-03-02T10:23:15;94078.34;;;10.71;83.14
36932;BME280;22847;42.654;23.370;2024-03-02T10:25:43;94211.50;;;11.44;84.27
36932;BME280;22847;42.654;23.370;2024-03-02T10:28:09;94237.25;;;11.31;83.69
36932;BME280;22847;42.654;23.370;2024-03-02T10:30:35;94200.41;;;11.26;83.58
36932;BME280;22847;42.654;23.370;2024-03-02T10:33:05;94151.41;;;11.03;83.45
36932;BME280;22847;42.654;23.370;2024-03-02T10:35:31;94213.47;;;11.50;83.78
36932;BME280;22847;42.654;23.370;2024-03-02T10:38:00;94058.38;;;10.46;83.61
36932;BME280;22847;42.654;23.370;2024-03-02T10:40:26;94204.97;;;11.24;84.77
36932;BME280;22847;42.654;23.370;2024-03-02T10:42:52;94029.41;;;10.07;83.92
36932;BME280;22847;42.654;23.370;2024-03-02T10:45:20;94075.97;;;10.36;83.30
36932;BME280;22847;42.654;23.370;2024-03-02T10:47:49;94185.66;;;11.08;84.52
36932;BME280;22847;42.654;23.370;2024-03-02T10:50:15;94092.28;;;10.54;84.74
36932;BME280;22847;42.654;23.370;2024-03-02T10:52:41;94033.56;;;10.17;85.01
36932;BME280;22847;42.654;23.370;2024-03-02T10:55:09;94128.38;;;10.83;84.99
36932;BME280;22847;42.654;23.370;2024-03-02T10:57:53;94185.31;;;11.03;86.04
36932;BME280;22847;42.654;23.370;2024-03-02T11:00:20;94195.34;;;11.24;86.46
36932;BME280;22847;42.654;23.370;2024-03-02T11:02:56;94162.84;;;11.10;85.15
36932;BME280;22847;42.654;23.370;2024-03-02T11:05:27;94198.09;;;11.23;85.07
36932;BME280;22847;42.654;23.370;2024-03-02T11:08:02;94188.81;;;11.28;85.65
36932;BME280;22847;42.654;23.370;2024-03-02T11:10:34;94171.69;;;11.26;85.75
36932;BME280;22847;42.654;23.370;2024-03-02T11:13:02;94180.84;;;11.46;85.92
36932;BME280;22847;42.654;23.370;2024-03-02T11:15:31;94203.38;;;11.55;85.57
36932;BME280;22847;42.654;23.370;2024-03-02T11:17:58;94180.22;;;11.60;85.79
36932;BME280;22847;42.654;23.370;2024-03-02T11:20:24;94194.91;;;11.69;86.07
36932;BME280;22847;42.654;23.370;2024-03-02T11:22:50;94182.53;;;11.79;87.18
36932;BME280;22847;42.654;23.370;2024-03-02T11:25:27;94154.25;;;11.67;86.68
36932;BME280;22847;42.654;23.370;2024-03-02T11:33:08;94147.25;;;11.59;86.19
36932;BME280;22847;42.654;23.370;2024-03-02T11:35:34;94179.88;;;11.63;86.31
36932;BME280;22847;42.654;23.370;2024-03-02T11:38:01;94089.63;;;11.04;85.65
36932;BME280;22847;42.654;23.370;2024-03-02T11:40:28;94199.78;;;11.56;85.56
36932;BME280;22847;42.654;23.370;2024-03-02T11:42:54;94100.53;;;10.91;85.59
36932;BME280;22847;42.654;23.370;2024-03-02T11:45:28;94030.75;;;10.69;85.26
36932;BME280;22847;42.654;23.370;2024-03-02T11:47:55;94143.97;;;11.41;84.92
36932;BME280;22847;42.654;23.370;2024-03-02T11:50:39;94134.19;;;11.43;84.64
36932;BME280;22847;42.654;23.370;2024-03-02T11:53:06;94068.75;;;11.04;84.54
36932;BME280;22847;42.654;23.370;2024-03-02T11:55:35;94133.88;;;11.38;84.97
36932;BME280;22847;42.654;23.370;2024-03-02T11:58:03;94108.06;;;11.27;85.04
36932;BME280;22847;42.654;23.370;2024-03-02T12:00:29;94174.31;;;11.50;85.07
36932;BME280;22847;42.654;23.370;2024-03-02T12:03:01;94183.47;;;11.62;85.61
36932;BME280;22847;42.654;23.370;2024-03-02T12:05:27;94034.84;;;10.71;85.53
36932;BME280;22847;42.654;23.370;2024-03-02T12:08:00;94185.09;;;11.63;85.48
36932;BME280;22847;42.654;23.370;2024-03-02T12:10:26;94111.66;;;11.09;85.00
36932;BME280;22847;42.654;23.370;2024-03-02T12:13:02;94188.25;;;11.75;84.94
36932;BME280;22847;42.654;23.370;2024-03-02T12:15:30;94194.59;;;11.72;84.34
36932;BME280;22847;42.654;23.370;2024-03-02T12:18:00;94199.81;;;11.80;84.27
36932;BME280;22847;42.654;23.370;2024-03-02T12:20:27;94130.28;;;11.47;84.15
36932;BME280;22847;42.654;23.370;2024-03-02T12:22:55;94063.72;;;11.10;84.02
36932;BME280;22847;42.654;23.370;2024-03-02T12:25:22;94176.00;;;11.91;83.06
36932;BME280;22847;42.654;23.370;2024-03-02T12:27:50;94159.16;;;11.70;81.51
36932;BME280;22847;42.654;23.370;2024-03-02T12:30:17;94158.03;;;11.72;81.27
36932;BME280;22847;42.654;23.370;2024-03-02T12:32:46;94153.94;;;11.70;81.04
36932;BME280;22847;42.654;23.370;2024-03-02T12:35:13;94172.09;;;11.79;81.57
36932;BME280;22847;42.654;23.370;2024-03-02T12:37:47;94061.59;;;11.14;80.81
36932;BME280;22847;42.654;23.370;2024-03-02T12:40:13;94131.91;;;11.48;80.32
36932;BME280;22847;42.654;23.370;2024-03-02T12:42:40;94067.78;;;11.13;80.56
36932;BME280;22847;42.654;23.370;2024-03-02T12:45:07;94200.47;;;11.90;80.22
36932;BME280;22847;42.654;23.370;2024-03-02T12:47:36;94098.63;;;11.34;80.16
36932;BME280;22847;42.654;23.370;2024-03-02T12:50:04;94178.44;;;11.85;79.50
36932;BME280;22847;42.654;23.370;2024-03-02T12:52:30;94189.41;;;11.88;79.21
36932;BME280;22847;42.654;23.370;2024-03-02T12:54:56;94187.28;;;11.84;79.57
36932;BME280;22847;42.654;23.370;2024-03-02T12:57:28;94115.59;;;11.46;79.66
36932;BME280;22847;42.654;23.370;2024-03-02T13:00:00;94067.63;;;11.23;79.66